sensor_id;sensor_type;location;lat;lon;timestamp;pressure;altitude;pressure_sealevel;temperature;humidity
5413;BME280;2729;50.056;8.678;2023-03-19T00:00:17;99952.31;;;12.49;100.00
5413;BME280;2729;50.056;8.678;2023-03-19T00:02:43;99953.00;;;12.54;100.00
5413;BME280;2729;50.056;8.678;2023-03-19T00:05:14;99939.59;;;12.62;100.00
5413;BME280;2729;50.056;8.678;2023-03-19T00:07:40;99946.63;;;12.83;100.00
5413;BME280;2729;50.056;8.678;2023-03-19T00:10:06;99947.28;;;12.88;100.00
5413;BME280;2729;50.056;8.678;2023-03-19T00:12:32;99952.41;;;12.91;100.00
5413;BME280;2729;50.056;8.678;2023-03-19T00:14:58;99964.84;;;12.86;100.00
5413;BME280;2729;50.056;8.678;2023-03-19T00:17:24;99960.56;;;12.83;100.00
5413;BME280;2729;50.056;8.678;2023-03-19T00:19:50;99966.78;;;12.81;100.00
5413;BME280;2729;50.056;8.678;2023-03-19T00:22:16;99968.97;;;12.70;100.00
5413;BME280;2729;50.056;8.678;2023-03-19T00:24:42;99963.78;;;12.68;100.00
5413;BME280;2729;50.056;8.678;2023-03-19T00:27:08;99963.09;;;12.63;100.00
5413;BME280;2729;50.056;8.678;2023-03-19T00:29:34;99963.72;;;12.70;100.00
5413;BME280;2729;50.056;8.678;2023-03-19T00:32:01;99962.53;;;12.78;100.00
5413;BME280;2729;50.056;8.678;2023-03-19T00:34:27;99972.94;;;12.80;100.00
5413;BME280;2729;50.056;8.678;2023-03-19T00:36:52;99967.63;;;12.81;100.00
5413;BME280;2729;50.056;8.678;2023-03-19T00:39:18;99973.28;;;12.71;100.00
5413;BME280;2729;50.056;8.678;2023-03-19T00:41:46;99973.16;;;12.74;100.00
5413;BME280;2729;50.056;8.678;2023-03-19T00:44:16;99969.81;;;12.70;100.00
5413;BME280;2729;50.056;8.678;2023-03-19T00:46:43;99973.47;;;12.66;100.00
5413;BME280;2729;50.056;8.678;2023-03-19T00:49:09;99968.06;;;12.47;100.00
5413;BME280;2729;50.056;8.678;2023-03-19T00:51:35;99970.34;;;12.56;100.00
5413;BME280;2729;50.056;8.678;2023-03-19T00:54:02;99970.97;;;12.40;100.00
5413;BME280;2729;50.056;8.678;2023-03-19T00:56:28;99973.19;;;12.27;100.00
5413;BME280;2729;50.056;8.678;2023-03-19T00:58:57;99974.09;;;12.26;100.00
5413;BME280;2729;50.056;8.678;2023-03-19T01:01:26;99973.09;;;12.30;100.00
5413;BME280;2729;50.056;8.678;2023-03-19T01:03:52;99966.66;;;12.39;100.00
5413;BME280;2729;50.056;8.678;2023-03-19T01:06:18;99976.16;;;12.41;100.00
5413;BME280;2729;50.056;8.678;2023-03-19T01:08:44;99975.47;;;12.36;100.00
5413;BME280;2729;50.056;8.678;2023-03-19T01:11:12;99971.31;;;12.31;100.00
5413;BME280;2729;50.056;8.678;2023-03-19T01:13:39;99980.81;;;12.33;100.00
5413;BME280;2729;50.056;8.678;2023-03-19T01:16:07;99990.72;;;12.25;100.00
5413;BME280;2729;50.056;8.678;2023-03-19T01:18:33;99983.88;;;12.21;100.00
5413;BME280;2729;50.056;8.678;2023-03-19T01:20:59;99970.91;;;12.18;100.00
5413;BME280;2729;50.056;8.678;2023-03-19T01:23:27;99979.16;;;12.07;100.00
5413;BME280;2729;50.056;8.678;2023-03-19T01:25:53;99986.03;;;12.10;100.00
5413;BME280;2729;50.056;8.678;2023-03-19T01:28:19;99986.88;;;12.10;100.00
5413;BME280;2729;50.056;8.678;2023-03-19T01:30:45;99980.88;;;11.83;100.00
5413;BME280;2729;50.056;8.678;2023-03-19T01:33:37;99982.91;;;12.00;100.00
5413;BME280;2729;50.056;8.678;2023-03-19T01:36:10;99972.59;;;11.96;100.00
5413;BME280;2729;50.056;8.678;2023-03-19T01:38:48;99969.56;;;11.83;100.00
5413;BME280;2729;50.056;8.678;2023-03-19T01:41:15;99976.44;;;11.85;100.00
5413;BME280;2729;50.056;8.678;2023-03-19T01:43:41;99974.63;;;11.87;100.00
5413;BME280;2729;50.056;8.678;2023-03-19T01:46:30;99975.94;;;11.74;100.00
5413;BME280;2729;50.056;8.678;2023-03-19T01:49:29;99968.53;;;11.87;100.00
5413;BME280;2729;50.056;8.678;2023-03-19T01:52:10;99971.00;;;11.91;100.00
5413;BME280;2729;50.056;8.678;2023-03-19T01:54:55;99975.53;;;11.86;100.00
5413;BME280;2729;50.056;8.678;2023-03-19T01:57:40;99965.81;;;11.90;100.00
5413;BME280;2729;50.056;8.678;2023-03-19T02:00:22;99964.69;;;11.97;100.00
5413;BME280;2729;50.056;8.678;2023-03-19T02:02:51;99962.97;;;11.96;100.00
5413;BME280;2729;50.056;8.678;2023-03-19T02:05:36;99965.22;;;12.07;100.00
5413;BME280;2729;50.056;8.678;2023-03-19T02:08:10;99960.91;;;12.06;100.00
5413;BME280;2729;50.056;8.678;2023-03-19T02:10:37;99964.94;;;12.14;100.00
5413;BME280;2729;50.056;8.678;2023-03-19T02:13:03;99958.28;;;12.06;100.00
5413;BME280;2729;50.056;8.678;2023-03-19T02:15:29;99963.84;;;11.97;100.00
5413;BME280;2729;50.056;8.678;2023-03-19T02:17:56;99966.56;;;11.94;100.00
5413;BME280;2729;50.056;8.678;2023-03-19T02:20:29;99969.34;;;11.89;100.00
5413;BME280;2729;50.056;8.678;2023-03-19T02:23:20;99964.38;;;11.81;100.00
5413;BME280;2729;50.056;8.678;2023-03-19T02:26:09;99963.09;;;11.93;100.00
5413;BME280;2729;50.056;8.678;2023-03-19T02:28:41;99970.41;;;11.83;100.00
5413;BME280;2729;50.056;8.678;2023-03-19T02:31:10;99965.97;;;11.85;100.00
5413;BME280;2729;50.056;8.678;2023-03-19T02:33:37;99961.28;;;11.95;100.00
5413;BME280;2729;50.056;8.678;2023-03-19T02:36:05;99957.19;;;11.88;100.00
5413;BME280;2729;50.056;8.678;2023-03-19T02:38:35;99962.81;;;11.76;100.00
5413;BME280;2729;50.056;8.678;2023-03-19T02:41:06;99966.31;;;11.75;100.00
5413;BME280;2729;50.056;8.678;2023-03-19T02:43:35;99962.22;;;11.68;100.00
5413;BME280;2729;50.056;8.678;2023-03-19T02:46:05;99971.50;;;11.76;100.00
5413;BME280;2729;50.056;8.678;2023-03-19T02:48:31;99966.94;;;11.56;100.00
5413;BME280;2729;50.056;8.678;2023-03-19T02:50:58;99972.78;;;11.65;100.00
5413;BME280;2729;50.056;8.678;2023-03-19T02:53:24;99982.28;;;11.67;100.00
5413;BME280;2729;50.056;8.678;2023-03-19T02:55:51;99988.53;;;11.37;100.00
5413;BME280;2729;50.056;8.678;2023-03-19T02:58:17;99987.78;;;11.33;100.00
5413;BME280;2729;50.056;8.678;2023-03-19T03:00:43;99977.28;;;11.35;100.00
5413;BME280;2729;50.056;8.678;2023-03-19T03:03:09;99981.69;;;11.33;100.00
5413;BME280;2729;50.056;8.678;2023-03-19T03:05:36;99981.03;;;11.52;100.00
5413;BME280;2729;50.056;8.678;2023-03-19T03:08:02;99982.38;;;11.64;100.00
5413;BME280;2729;50.056;8.678;2023-03-19T03:10:30;99982.28;;;11.67;100.00
5413;BME280;2729;50.056;8.678;2023-03-19T03:12:57;99988.31;;;11.69;100.00
5413;BME280;2729;50.056;8.678;2023-03-19T03:15:23;99996.50;;;11.58;100.00
5413;BME280;2729;50.056;8.678;2023-03-19T03:17:50;99999.88;;;11.62;100.00
5413;BME280;2729;50.056;8.678;2023-03-19T03:20:16;100004.44;;;11.55;100.00
5413;BME280;2729;50.056;8.678;2023-03-19T03:22:43;100005.41;;;11.53;100.00
5413;BME280;2729;50.056;8.678;2023-03-19T03:25:10;99998.16;;;11.35;100.00
5413;BME280;2729;50.056;8.678;2023-03-19T03:27:36;100000.13;;;11.28;100.00
5413;BME280;2729;50.056;8.678;2023-03-19T03:30:04;99997.91;;;11.16;100.00
5413;BME280;2729;50.056;8.678;2023-03-19T03:32:34;99995.19;;;11.19;100.00
5413;BME280;2729;50.056;8.678;2023-03-19T03:35:01;99995.19;;;11.19;100.00
5413;BME280;2729;50.056;8.678;2023-03-19T03:37:28;99995.25;;;11.17;100.00
5413;BME280;2729;50.056;8.678;2023-03-19T03:39:54;99999.63;;;11.17;100.00
5413;BME280;2729;50.056;8.678;2023-03-19T03:42:20;99998.97;;;11.10;100.00
5413;BME280;2729;50.056;8.678;2023-03-19T03:44:46;100006.88;;;11.07;100.00
5413;BME280;2729;50.056;8.678;2023-03-19T03:47:12;100004.22;;;11.09;100.00
5413;BME280;2729;50.056;8.678;2023-03-19T03:49:39;100005.97;;;11.08;100.00
5413;BME280;2729;50.056;8.678;2023-03-19T03:52:05;100006.22;;;11.01;100.00
5413;BME280;2729;50.056;8.678;2023-03-19T03:54:33;100014.28;;;10.93;100.00
5413;BME280;2729;50.056;8.678;2023-03-19T03:56:59;100009.31;;;10.85;100.00
5413;BME280;2729;50.056;8.678;2023-03-19T03:59:26;100013.28;;;10.69;100.00
5413;BME280;2729;50.056;8.678;2023-03-19T04:01:51;100014.50;;;10.57;100.00
5413;BME280;2729;50.056;8.678;2023-03-19T04:04:17;100013.94;;;10.46;100.00
5413;BME280;2729;50.056;8.678;2023-03-19T04:06:45;100017.59;;;10.41;100.00
5413;BME280;2729;50.056;8.678;2023-03-19T04:09:16;100015.13;;;10.35;100.00
5413;BME280;2729;50.056;8.678;2023-03-19T04:11:42;100017.44;;;10.45;100.00
5413;BME280;2729;50.056;8.678;2023-03-19T04:14:08;100013.72;;;10.54;100.00
5413;BME280;2729;50.056;8.678;2023-03-19T04:16:35;100019.56;;;10.62;100.00
5413;BME280;2729;50.056;8.678;2023-03-19T04:19:01;100015.34;;;10.58;100.00
5413;BME280;2729;50.056;8.678;2023-03-19T04:21:27;100017.91;;;10.59;100.00
5413;BME280;2729;50.056;8.678;2023-03-19T04:23:54;100022.19;;;10.62;100.00
5413;BME280;2729;50.056;8.678;2023-03-19T04:26:20;100033.56;;;10.59;100.00
5413;BME280;2729;50.056;8.678;2023-03-19T04:28:46;100035.22;;;10.62;100.00
5413;BME280;2729;50.056;8.678;2023-03-19T04:31:12;100033.69;;;10.55;100.00
5413;BME280;2729;50.056;8.678;2023-03-19T04:33:42;100038.16;;;10.51;100.00
5413;BME280;2729;50.056;8.678;2023-03-19T04:36:08;100037.44;;;10.46;100.00
5413;BME280;2729;50.056;8.678;2023-03-19T04:38:35;100033.72;;;10.22;100.00
5413;BME280;2729;50.056;8.678;2023-03-19T04:41:01;100037.47;;;10.45;100.00
5413;BME280;2729;50.056;8.678;2023-03-19T04:43:28;100040.94;;;10.45;100.00
5413;BME280;2729;50.056;8.678;2023-03-19T04:45:54;100044.47;;;10.43;100.00
5413;BME280;2729;50.056;8.678;2023-03-19T04:48:21;100044.88;;;10.27;100.00
5413;BME280;2729;50.056;8.678;2023-03-19T04:50:50;100061.63;;;10.17;100.00
5413;BME280;2729;50.056;8.678;2023-03-19T04:53:21;100057.28;;;10.18;100.00
5413;BME280;2729;50.056;8.678;2023-03-19T04:55:48;100047.91;;;10.11;100.00
5413;BME280;2729;50.056;8.678;2023-03-19T04:58:16;100050.91;;;9.95;100.00
5413;BME280;2729;50.056;8.678;2023-03-19T05:00:44;100050.44;;;10.14;100.00
5413;BME280;2729;50.056;8.678;2023-03-19T05:03:16;100054.78;;;10.13;100.00
5413;BME280;2729;50.056;8.678;2023-03-19T05:05:43;100060.81;;;10.15;100.00
5413;BME280;2729;50.056;8.678;2023-03-19T05:08:08;100057.22;;;10.21;100.00
5413;BME280;2729;50.056;8.678;2023-03-19T05:10:36;100059.78;;;10.22;100.00
5413;BME280;2729;50.056;8.678;2023-03-19T05:13:03;100062.28;;;10.27;100.00
5413;BME280;2729;50.056;8.678;2023-03-19T05:15:29;100057.88;;;10.29;100.00
5413;BME280;2729;50.056;8.678;2023-03-19T05:18:00;100064.06;;;10.25;100.00
5413;BME280;2729;50.056;8.678;2023-03-19T05:20:36;100071.16;;;10.18;100.00
5413;BME280;2729;50.056;8.678;2023-03-19T05:23:06;100064.22;;;10.19;100.00
5413;BME280;2729;50.056;8.678;2023-03-19T05:25:43;100063.50;;;10.12;100.00
5413;BME280;2729;50.056;8.678;2023-03-19T05:28:11;100067.13;;;10.07;100.00
5413;BME280;2729;50.056;8.678;2023-03-19T05:30:38;100065.38;;;10.07;100.00
5413;BME280;2729;50.056;8.678;2023-03-19T05:33:09;100067.09;;;10.08;100.00
5413;BME280;2729;50.056;8.678;2023-03-19T05:35:43;100073.13;;;10.10;100.00
5413;BME280;2729;50.056;8.678;2023-03-19T05:38:18;100080.41;;;9.97;100.00
5413;BME280;2729;50.056;8.678;2023-03-19T05:40:52;100074.50;;;9.91;100.00
5413;BME280;2729;50.056;8.678;2023-03-19T05:43:23;100085.75;;;9.93;100.00
5413;BME280;2729;50.056;8.678;2023-03-19T05:45:50;100085.91;;;9.87;100.00
5413;BME280;2729;50.056;8.678;2023-03-19T05:48:24;100089.13;;;9.96;100.00
5413;BME280;2729;50.056;8.678;2023-03-19T05:50:53;100091.47;;;10.07;100.00
5413;BME280;2729;50.056;8.678;2023-03-19T05:53:21;100095.78;;;10.08;100.00
5413;BME280;2729;50.056;8.678;2023-03-19T05:56:07;100081.88;;;10.08;100.00
5413;BME280;2729;50.056;8.678;2023-03-19T05:58:42;100091.72;;;9.96;100.00
5413;BME280;2729;50.056;8.678;2023-03-19T06:01:08;100100.75;;;10.17;100.00
5413;BME280;2729;50.056;8.678;2023-03-19T06:03:34;100103.59;;;10.08;100.00
5413;BME280;2729;50.056;8.678;2023-03-19T06:06:05;100094.09;;;10.06;100.00
5413;BME280;2729;50.056;8.678;2023-03-19T06:08:41;100101.94;;;10.06;100.00
5413;BME280;2729;50.056;8.678;2023-03-19T06:11:27;100105.34;;;10.08;100.00
5413;BME280;2729;50.056;8.678;2023-03-19T06:14:13;100108.63;;;10.16;100.00
5413;BME280;2729;50.056;8.678;2023-03-19T06:16:43;100113.91;;;10.13;100.00
5413;BME280;2729;50.056;8.678;2023-03-19T06:19:09;100111.03;;;10.25;100.00
5413;BME280;2729;50.056;8.678;2023-03-19T06:21:34;100110.41;;;10.14;100.00
5413;BME280;2729;50.056;8.678;2023-03-19T06:24:02;100113.78;;;10.17;100.00
5413;BME280;2729;50.056;8.678;2023-03-19T06:26:33;100116.25;;;10.25;100.00
5413;BME280;2729;50.056;8.678;2023-03-19T06:29:01;100114.66;;;10.18;100.00
5413;BME280;2729;50.056;8.678;2023-03-19T06:31:27;100116.88;;;10.33;100.00
5413;BME280;2729;50.056;8.678;2023-03-19T06:33:59;100121.91;;;10.42;100.00
5413;BME280;2729;50.056;8.678;2023-03-19T06:36:38;100125.06;;;10.53;100.00
5413;BME280;2729;50.056;8.678;2023-03-19T06:39:08;100121.41;;;10.60;100.00
5413;BME280;2729;50.056;8.678;2023-03-19T06:41:35;100117.81;;;10.65;100.00
5413;BME280;2729;50.056;8.678;2023-03-19T06:44:11;100122.13;;;10.66;100.00
5413;BME280;2729;50.056;8.678;2023-03-19T06:46:37;100123.66;;;10.73;100.00
5413;BME280;2729;50.056;8.678;2023-03-19T06:49:03;100127.66;;;10.86;100.00
5413;BME280;2729;50.056;8.678;2023-03-19T06:51:29;100125.16;;;10.81;100.00
5413;BME280;2729;50.056;8.678;2023-03-19T06:53:55;100133.50;;;10.94;100.00
5413;BME280;2729;50.056;8.678;2023-03-19T06:56:21;100132.06;;;10.84;100.00
5413;BME280;2729;50.056;8.678;2023-03-19T06:58:47;100135.91;;;11.02;100.00
5413;BME280;2729;50.056;8.678;2023-03-19T07:01:13;100142.81;;;11.03;100.00
5413;BME280;2729;50.056;8.678;2023-03-19T07:03:39;100145.13;;;11.13;100.00
5413;BME280;2729;50.056;8.678;2023-03-19T07:06:05;100136.31;;;11.17;100.00
5413;BME280;2729;50.056;8.678;2023-03-19T07:08:32;100139.31;;;11.33;100.00
5413;BME280;2729;50.056;8.678;2023-03-19T07:11:05;100136.91;;;11.55;100.00
5413;BME280;2729;50.056;8.678;2023-03-19T07:13:32;100135.75;;;11.64;100.00
5413;BME280;2729;50.056;8.678;2023-03-19T07:15:58;100150.97;;;11.79;100.00
5413;BME280;2729;50.056;8.678;2023-03-19T07:18:25;100148.22;;;11.83;100.00
5413;BME280;2729;50.056;8.678;2023-03-19T07:20:51;100147.03;;;11.94;100.00
5413;BME280;2729;50.056;8.678;2023-03-19T07:23:18;100147.56;;;12.03;100.00
5413;BME280;2729;50.056;8.678;2023-03-19T07:25:43;100146.91;;;12.23;100.00
5413;BME280;2729;50.056;8.678;2023-03-19T07:28:10;100148.03;;;12.41;100.00
5413;BME280;2729;50.056;8.678;2023-03-19T07:30:36;100151.09;;;12.53;100.00
5413;BME280;2729;50.056;8.678;2023-03-19T07:33:04;100143.81;;;12.62;100.00
5413;BME280;2729;50.056;8.678;2023-03-19T07:35:32;100143.28;;;12.77;100.00
5413;BME280;2729;50.056;8.678;2023-03-19T07:37:58;100144.75;;;12.84;100.00
5413;BME280;2729;50.056;8.678;2023-03-19T07:40:25;100148.59;;;12.99;100.00
5413;BME280;2729;50.056;8.678;2023-03-19T07:42:51;100151.59;;;13.13;100.00
5413;BME280;2729;50.056;8.678;2023-03-19T07:45:18;100153.22;;;13.17;100.00
5413;BME280;2729;50.056;8.678;2023-03-19T07:47:44;100152.69;;;13.31;100.00
5413;BME280;2729;50.056;8.678;2023-03-19T07:50:10;100155.59;;;13.23;100.00
5413;BME280;2729;50.056;8.678;2023-03-19T07:52:36;100154.28;;;13.35;100.00
5413;BME280;2729;50.056;8.678;2023-03-19T07:55:02;100154.56;;;13.27;100.00
5413;BME280;2729;50.056;8.678;2023-03-19T07:57:28;100152.91;;;13.48;100.00
5413;BME280;2729;50.056;8.678;2023-03-19T07:59:54;100146.84;;;13.46;100.00
5413;BME280;2729;50.056;8.678;2023-03-19T08:02:20;100149.69;;;13.63;100.00
5413;BME280;2729;50.056;8.678;2023-03-19T08:04:46;100145.44;;;13.37;100.00
5413;BME280;2729;50.056;8.678;2023-03-19T08:07:12;100146.69;;;13.72;100.00
5413;BME280;2729;50.056;8.678;2023-03-19T08:09:39;100158.34;;;13.65;100.00
5413;BME280;2729;50.056;8.678;2023-03-19T08:12:06;100163.16;;;13.76;100.00
5413;BME280;2729;50.056;8.678;2023-03-19T08:14:33;100169.88;;;13.83;100.00
5413;BME280;2729;50.056;8.678;2023-03-19T08:16:59;100163.78;;;13.82;100.00
5413;BME280;2729;50.056;8.678;2023-03-19T08:19:25;100169.31;;;13.75;100.00
5413;BME280;2729;50.056;8.678;2023-03-19T08:21:51;100163.28;;;13.95;100.00
5413;BME280;2729;50.056;8.678;2023-03-19T08:24:17;100172.63;;;14.22;100.00
5413;BME280;2729;50.056;8.678;2023-03-19T08:26:43;100172.28;;;14.09;100.00
5413;BME280;2729;50.056;8.678;2023-03-19T08:29:09;100178.88;;;14.20;100.00
5413;BME280;2729;50.056;8.678;2023-03-19T08:31:35;100171.06;;;14.18;100.00
5413;BME280;2729;50.056;8.678;2023-03-19T08:34:01;100170.84;;;14.44;100.00
5413;BME280;2729;50.056;8.678;2023-03-19T08:36:30;100163.03;;;14.63;100.00
5413;BME280;2729;50.056;8.678;2023-03-19T08:38:56;100158.00;;;14.59;100.00
5413;BME280;2729;50.056;8.678;2023-03-19T08:41:26;100159.56;;;14.63;100.00
5413;BME280;2729;50.056;8.678;2023-03-19T08:43:52;100176.63;;;14.53;100.00
5413;BME280;2729;50.056;8.678;2023-03-19T08:46:18;100178.28;;;14.55;100.00
5413;BME280;2729;50.056;8.678;2023-03-19T08:48:44;100165.00;;;14.58;100.00
5413;BME280;2729;50.056;8.678;2023-03-19T08:51:10;100168.75;;;14.53;100.00
5413;BME280;2729;50.056;8.678;2023-03-19T08:53:36;100171.50;;;14.70;100.00
5413;BME280;2729;50.056;8.678;2023-03-19T08:56:05;100177.59;;;14.91;100.00
5413;BME280;2729;50.056;8.678;2023-03-19T08:58:32;100171.97;;;14.79;100.00
5413;BME280;2729;50.056;8.678;2023-03-19T09:01:08;100169.25;;;14.81;100.00
5413;BME280;2729;50.056;8.678;2023-03-19T09:03:36;100172.78;;;15.00;98.28
5413;BME280;2729;50.056;8.678;2023-03-19T09:06:03;100167.28;;;15.25;98.75
5413;BME280;2729;50.056;8.678;2023-03-19T09:08:33;100161.31;;;15.40;96.20
5413;BME280;2729;50.056;8.678;2023-03-19T09:11:00;100167.91;;;15.49;96.35
5413;BME280;2729;50.056;8.678;2023-03-19T09:13:26;100164.56;;;15.45;97.40
5413;BME280;2729;50.056;8.678;2023-03-19T09:15:52;100167.03;;;15.69;96.00
5413;BME280;2729;50.056;8.678;2023-03-19T09:18:18;100154.53;;;15.91;93.53
5413;BME280;2729;50.056;8.678;2023-03-19T09:20:51;100166.44;;;15.81;92.28
5413;BME280;2729;50.056;8.678;2023-03-19T09:23:17;100171.94;;;15.77;92.87
5413;BME280;2729;50.056;8.678;2023-03-19T09:25:43;100169.75;;;15.67;94.43
5413;BME280;2729;50.056;8.678;2023-03-19T09:28:09;100163.28;;;15.92;92.18
5413;BME280;2729;50.056;8.678;2023-03-19T09:30:35;100168.06;;;15.84;89.90
5413;BME280;2729;50.056;8.678;2023-03-19T09:33:02;100162.06;;;15.99;91.30
5413;BME280;2729;50.056;8.678;2023-03-19T09:35:28;100167.19;;;16.19;91.14
5413;BME280;2729;50.056;8.678;2023-03-19T09:37:56;100168.13;;;16.35;89.22
5413;BME280;2729;50.056;8.678;2023-03-19T09:40:26;100157.53;;;16.71;83.80
5413;BME280;2729;50.056;8.678;2023-03-19T09:45:47;100162.00;;;17.35;82.04
5413;BME280;2729;50.056;8.678;2023-03-19T09:48:28;100157.00;;;17.62;80.72
5413;BME280;2729;50.056;8.678;2023-03-19T09:50:58;100158.97;;;17.75;79.27
5413;BME280;2729;50.056;8.678;2023-03-19T09:53:46;100164.31;;;17.89;78.40
5413;BME280;2729;50.056;8.678;2023-03-19T09:56:14;100161.50;;;17.92;73.88
5413;BME280;2729;50.056;8.678;2023-03-19T09:58:41;100166.63;;;17.95;76.14
5413;BME280;2729;50.056;8.678;2023-03-19T10:01:20;100155.34;;;18.07;75.25
5413;BME280;2729;50.056;8.678;2023-03-19T10:04:03;100164.97;;;18.08;73.74
5413;BME280;2729;50.056;8.678;2023-03-19T10:06:36;100167.34;;;18.13;74.10
5413;BME280;2729;50.056;8.678;2023-03-19T10:12:04;100165.00;;;17.45;77.97
5413;BME280;2729;50.056;8.678;2023-03-19T10:14:54;100161.00;;;17.38;73.42
5413;BME280;2729;50.056;8.678;2023-03-19T10:17:31;100170.00;;;17.34;76.92
5413;BME280;2729;50.056;8.678;2023-03-19T10:20:15;100168.19;;;17.19;78.98
5413;BME280;2729;50.056;8.678;2023-03-19T10:22:55;100174.00;;;17.25;77.30
5413;BME280;2729;50.056;8.678;2023-03-19T10:25:28;100168.16;;;17.52;76.85
5413;BME280;2729;50.056;8.678;2023-03-19T10:28:10;100173.59;;;17.64;80.63
5413;BME280;2729;50.056;8.678;2023-03-19T10:30:40;100169.09;;;17.51;77.47
5413;BME280;2729;50.056;8.678;2023-03-19T10:33:23;100167.38;;;17.34;77.27
5413;BME280;2729;50.056;8.678;2023-03-19T10:36:04;100169.09;;;17.51;78.62
5413;BME280;2729;50.056;8.678;2023-03-19T10:38:39;100171.81;;;17.65;76.48
5413;BME280;2729;50.056;8.678;2023-03-19T10:41:19;100168.72;;;18.04;76.02
5413;BME280;2729;50.056;8.678;2023-03-19T10:43:58;100165.19;;;17.89;77.02
5413;BME280;2729;50.056;8.678;2023-03-19T10:46:25;100168.50;;;17.93;75.39
5413;BME280;2729;50.056;8.678;2023-03-19T10:48:51;100166.78;;;18.08;74.38
5413;BME280;2729;50.056;8.678;2023-03-19T10:51:21;100169.06;;;18.29;74.78
5413;BME280;2729;50.056;8.678;2023-03-19T10:53:51;100176.06;;;18.45;76.33
5413;BME280;2729;50.056;8.678;2023-03-19T10:56:21;100180.34;;;18.47;74.69
5413;BME280;2729;50.056;8.678;2023-03-19T10:59:00;100175.13;;;18.46;73.73
5413;BME280;2729;50.056;8.678;2023-03-19T11:01:31;100178.59;;;18.62;72.89
5413;BME280;2729;50.056;8.678;2023-03-19T11:03:59;100173.97;;;18.66;70.19
5413;BME280;2729;50.056;8.678;2023-03-19T11:06:33;100175.44;;;18.55;73.35
5413;BME280;2729;50.056;8.678;2023-03-19T11:11:44;100176.56;;;18.81;70.50
5413;BME280;2729;50.056;8.678;2023-03-19T11:14:17;100178.63;;;18.90;70.99
5413;BME280;2729;50.056;8.678;2023-03-19T11:16:54;100172.22;;;18.80;69.23
5413;BME280;2729;50.056;8.678;2023-03-19T11:19:26;100174.88;;;19.09;67.71
5413;BME280;2729;50.056;8.678;2023-03-19T11:22:00;100181.09;;;19.08;69.47
5413;BME280;2729;50.056;8.678;2023-03-19T11:24:30;100173.66;;;18.56;68.15
5413;BME280;2729;50.056;8.678;2023-03-19T11:26:56;100172.88;;;18.84;68.75
5413;BME280;2729;50.056;8.678;2023-03-19T11:29:26;100183.94;;;18.90;68.14
5413;BME280;2729;50.056;8.678;2023-03-19T11:32:23;100174.00;;;18.50;66.29
5413;BME280;2729;50.056;8.678;2023-03-19T11:34:55;100173.84;;;18.53;67.65
5413;BME280;2729;50.056;8.678;2023-03-19T11:37:54;100173.81;;;18.83;65.46
5413;BME280;2729;50.056;8.678;2023-03-19T11:40:46;100175.25;;;19.17;65.49
5413;BME280;2729;50.056;8.678;2023-03-19T11:43:39;100172.13;;;19.24;64.23
5413;BME280;2729;50.056;8.678;2023-03-19T11:46:15;100180.16;;;18.94;66.72
5413;BME280;2729;50.056;8.678;2023-03-19T11:51:48;100169.84;;;18.46;68.73
5413;BME280;2729;50.056;8.678;2023-03-19T11:54:20;100163.44;;;18.50;64.31
5413;BME280;2729;50.056;8.678;2023-03-19T11:57:11;100153.91;;;18.91;64.03
5413;BME280;2729;50.056;8.678;2023-03-19T12:02:23;100153.13;;;18.75;63.78
5413;BME280;2729;50.056;8.678;2023-03-19T12:10:41;100155.09;;;18.72;61.83
5413;BME280;2729;50.056;8.678;2023-03-19T12:16:28;100159.06;;;18.35;61.08
5413;BME280;2729;50.056;8.678;2023-03-19T12:19:05;100155.25;;;18.24;60.78
5413;BME280;2729;50.056;8.678;2023-03-19T12:22:17;100152.88;;;18.50;64.17
5413;BME280;2729;50.056;8.678;2023-03-19T12:28:02;100150.38;;;18.33;68.64
5413;BME280;2729;50.056;8.678;2023-03-19T12:30:42;100155.97;;;17.96;66.80
5413;BME280;2729;50.056;8.678;2023-03-19T12:33:33;100160.94;;;17.87;65.58
5413;BME280;2729;50.056;8.678;2023-03-19T12:36:04;100162.19;;;17.95;68.62
5413;BME280;2729;50.056;8.678;2023-03-19T12:38:40;100152.94;;;18.18;63.71
5413;BME280;2729;50.056;8.678;2023-03-19T12:41:09;100154.59;;;18.21;64.30
5413;BME280;2729;50.056;8.678;2023-03-19T12:43:53;100149.34;;;18.19;64.08
5413;BME280;2729;50.056;8.678;2023-03-19T12:46:28;100153.97;;;18.31;61.61
5413;BME280;2729;50.056;8.678;2023-03-19T12:49:02;100148.91;;;17.97;61.12
5413;BME280;2729;50.056;8.678;2023-03-19T12:51:35;100156.50;;;17.72;62.91
5413;BME280;2729;50.056;8.678;2023-03-19T12:54:17;100151.38;;;18.00;61.82
5413;BME280;2729;50.056;8.678;2023-03-19T13:02:41;100141.03;;;18.11;67.82
5413;BME280;2729;50.056;8.678;2023-03-19T13:05:18;100149.22;;;18.07;64.20
5413;BME280;2729;50.056;8.678;2023-03-19T13:10:53;100150.28;;;17.88;67.83
5413;BME280;2729;50.056;8.678;2023-03-19T13:16:44;100162.22;;;17.80;73.72
5413;BME280;2729;50.056;8.678;2023-03-19T13:22:02;100158.78;;;17.62;80.68
5413;BME280;2729;50.056;8.678;2023-03-19T13:24:40;100165.09;;;17.91;82.58
5413;BME280;2729;50.056;8.678;2023-03-19T13:27:14;100162.91;;;17.19;87.38
5413;BME280;2729;50.056;8.678;2023-03-19T13:30:10;100169.06;;;17.35;89.94
5413;BME280;2729;50.056;8.678;2023-03-19T13:32:49;100176.97;;;17.19;90.40
5413;BME280;2729;50.056;8.678;2023-03-19T13:40:43;100181.47;;;16.84;90.77
5413;BME280;2729;50.056;8.678;2023-03-19T13:46:01;100187.00;;;15.92;100.00
5413;BME280;2729;50.056;8.678;2023-03-19T13:50:58;100183.72;;;16.23;100.00
5413;BME280;2729;50.056;8.678;2023-03-19T13:55:59;100187.84;;;16.80;100.00
5413;BME280;2729;50.056;8.678;2023-03-19T13:58:43;100195.25;;;16.55;100.00
5413;BME280;2729;50.056;8.678;2023-03-19T14:03:56;100194.88;;;16.80;100.00
5413;BME280;2729;50.056;8.678;2023-03-19T14:06:40;100195.88;;;16.60;100.00
5413;BME280;2729;50.056;8.678;2023-03-19T14:09:30;100191.31;;;16.81;100.00
5413;BME280;2729;50.056;8.678;2023-03-19T14:15:03;100202.25;;;16.02;100.00
5413;BME280;2729;50.056;8.678;2023-03-19T14:17:59;100195.44;;;15.98;100.00
5413;BME280;2729;50.056;8.678;2023-03-19T14:20:34;100201.47;;;15.64;100.00
5413;BME280;2729;50.056;8.678;2023-03-19T14:26:04;100190.44;;;15.55;100.00
5413;BME280;2729;50.056;8.678;2023-03-19T14:31:23;100186.03;;;15.36;100.00